Time;durP1;ratioP1;P1;durP2;ratioP2;P2;SDS_P1;SDS_P2;PMS_P1;PMS_P2;Temp;Humidity;BMP_temperature;BMP_pressure;BME280_temperature;BME280_humidity;BME280_pressure;Samples;Min_cycle;Max_cycle;Signal;HPM_P1;HPM_P2
2021/12/06 00:02:03;;;;;;;27.93;16.13;;;2.70;99.90;2.40;99917.00;;;;5015802;27;88943;-66
2021/12/06 00:04:38;;;;;;;31.77;16.13;;;2.60;99.90;2.40;99918.00;;;;5008520;27;87286;-66
2021/12/06 00:07:11;;;;;;;30.67;17.10;;;2.70;99.90;2.40;99924.00;;;;5015039;27;87931;-66
2021/12/06 00:09:37;;;;;;;34.00;17.70;;;2.60;99.90;2.40;99918.00;;;;4995611;27;87946;-65
2021/12/06 00:12:04;;;;;;;30.70;16.70;;;2.60;99.90;2.30;99919.00;;;;4994710;27;89857;-66
2021/12/06 00:14:37;;;;;;;30.43;17.63;;;2.60;99.90;2.30;99921.00;;;;4995435;27;89792;-66
2021/12/06 00:17:11;;;;;;;35.57;17.87;;;2.60;99.90;2.30;99921.00;;;;4997747;27;87773;-67
2021/12/06 00:19:38;;;;;;;31.83;15.97;;;2.60;99.90;2.30;99936.00;;;;5015119;27;87757;-65
2021/12/06 00:22:09;;;;;;;33.60;17.43;;;2.50;99.90;2.30;99932.00;;;;5014189;27;108692;-65
2021/12/06 00:24:35;;;;;;;33.53;16.50;;;2.50;99.90;2.30;99934.00;;;;5015135;27;89144;-66
2021/12/06 00:27:01;;;;;;;33.83;17.20;;;2.50;99.90;2.30;99938.00;;;;5015541;27;87709;-65
2021/12/06 00:29:27;;;;;;;31.23;16.23;;;2.40;99.90;2.20;99932.00;;;;5015290;27;87398;-66
2021/12/06 00:31:52;;;;;;;29.47;14.93;;;2.50;99.90;2.30;99942.00;;;;5015113;27;88833;-66
2021/12/06 00:34:20;;;;;;;25.53;14.17;;;3.10;99.90;2.30;99950.00;;;;5015268;27;88143;-65
2021/12/06 00:36:54;;;;;;;39.97;17.67;;;2.50;99.90;2.20;99947.00;;;;5014643;27;88738;-66
2021/12/06 00:39:22;;;;;;;28.77;15.33;;;2.50;99.90;2.20;99957.00;;;;5014062;27;90107;-66
2021/12/06 00:41:49;;;;;;;26.33;15.53;;;2.50;99.90;2.20;99957.00;;;;5011922;27;118552;-66
2021/12/06 00:44:14;;;;;;;32.70;15.87;;;2.50;99.90;2.20;99962.00;;;;5014650;27;95206;-65
2021/12/06 00:46:40;;;;;;;21.27;14.57;;;2.50;99.90;2.20;99957.00;;;;4994663;27;112891;-65
2021/12/06 00:49:09;;;;;;;27.73;14.87;;;2.50;99.90;2.20;99968.00;;;;4994221;27;109122;-65
2021/12/06 00:51:36;;;;;;;25.47;13.73;;;2.40;99.90;2.20;99967.00;;;;4998684;27;88839;-65
2021/12/06 00:54:02;;;;;;;28.23;15.87;;;2.40;99.90;2.20;99975.00;;;;5015754;27;91770;-67
2021/12/06 00:56:28;;;;;;;27.60;14.67;;;2.40;99.90;2.10;99965.00;;;;5014598;27;100386;-66
2021/12/06 00:58:54;;;;;;;29.80;13.60;;;2.40;99.90;2.10;99979.00;;;;5011376;27;100021;-67
2021/12/06 01:01:20;;;;;;;27.53;13.90;;;2.40;99.90;2.10;99974.00;;;;5013780;27;119307;-67
2021/12/06 01:03:46;;;;;;;26.73;15.60;;;2.40;99.90;2.10;99974.00;;;;5012083;27;117805;-66
2021/12/06 01:06:13;;;;;;;31.23;16.23;;;2.40;99.90;2.10;99973.00;;;;5014204;27;105370;-66
2021/12/06 01:08:40;;;;;;;29.50;15.90;;;2.40;99.90;2.10;99980.00;;;;5014400;27;87714;-66
2021/12/06 01:11:08;;;;;;;28.93;15.03;;;2.40;99.90;2.10;99983.00;;;;5014623;27;88477;-66
2021/12/06 01:13:35;;;;;;;26.53;14.63;;;2.40;99.90;2.10;99980.00;;;;5000821;27;111568;-68
2021/12/06 01:16:01;;;;;;;31.57;17.73;;;3.10;99.90;2.10;99984.00;;;;4992312;27;107842;-68
2021/12/06 01:18:27;;;;;;;31.53;16.77;;;2.40;99.90;2.10;99990.00;;;;4997805;27;87288;-67
2021/12/06 01:23:31;;;;;;;26.13;15.40;;;2.40;99.90;2.10;99995.00;;;;5016835;27;88087;-68
2021/12/06 01:29:04;;;;;;;29.13;14.93;;;2.30;99.90;2.10;99998.00;;;;5018001;27;88172;-68
2021/12/06 01:39:38;;;;;;;30.07;14.43;;;2.30;99.90;2.00;99993.00;;;;5014141;27;87909;-69
2021/12/06 01:42:06;;;;;;;27.77;14.40;;;2.30;99.90;2.00;100003.00;;;;5017350;27;96637;-69
2021/12/06 01:44:41;;;;;;;27.20;17.00;;;2.30;99.90;2.00;100000.00;;;;5015744;27;87868;-70
2021/12/06 01:47:15;;;;;;;28.70;15.20;;;2.20;99.90;2.00;100003.00;;;;5013096;27;87723;-70
2021/12/06 01:49:48;;;;;;;38.57;17.00;;;2.20;99.90;2.00;100003.00;;;;5013890;27;87878;-70
2021/12/06 01:52:23;;;;;;;26.43;15.10;;;2.20;99.90;2.00;99999.00;;;;4994680;28;105773;-70
2021/12/06 01:54:50;;;;;;;29.90;14.90;;;2.10;99.90;2.00;100004.00;;;;4996802;27;107012;-71
2021/12/06 01:57:17;;;;;;;26.93;15.20;;;2.20;99.90;2.00;100008.00;;;;4995751;28;87714;-70
2021/12/06 01:59:43;;;;;;;28.37;16.07;;;2.30;99.90;2.00;100013.00;;;;5023825;27;92068;-70
2021/12/06 02:02:10;;;;;;;30.03;15.40;;;2.30;99.90;2.00;100004.00;;;;4996535;28;117501;-70
2021/12/06 02:04:39;;;;;;;27.17;15.90;;;2.30;99.90;2.10;99996.00;;;;4997448;27;101250;-70
2021/12/06 02:07:07;;;;;;;28.50;15.20;;;2.30;99.90;2.00;100003.00;;;;4996752;27;103278;-71
2021/12/06 02:09:33;;;;;;;30.97;15.40;;;2.30;99.90;2.10;100008.00;;;;5017655;27;87123;-70
2021/12/06 02:12:01;;;;;;;22.10;11.83;;;2.20;99.90;2.00;100008.00;;;;5015512;27;107575;-70
2021/12/06 02:14:46;;;;;;;29.73;15.00;;;2.30;99.90;2.10;100014.00;;;;5014924;27;89116;-70
2021/12/06 02:17:22;;;;;;;31.40;16.20;;;2.30;99.90;2.10;100016.00;;;;4996081;27;88954;-70
2021/12/06 02:19:56;;;;;;;26.43;15.30;;;2.30;99.90;2.10;100018.00;;;;4994181;27;88205;-69
2021/12/06 02:22:26;;;;;;;24.47;13.93;;;2.30;99.90;2.10;100016.00;;;;4995800;27;88901;-71
2021/12/06 02:24:55;;;;;;;29.13;14.67;;;2.30;99.90;2.10;100014.00;;;;5017080;27;87819;-69
2021/12/06 02:27:24;;;;;;;25.33;14.27;;;2.30;99.90;2.10;100022.00;;;;4997959;27;88948;-69
2021/12/06 02:29:52;;;;;;;34.27;15.40;;;2.90;99.90;2.10;100018.00;;;;5014887;27;87786;-70
2021/12/06 02:32:18;;;;;;;30.50;14.93;;;2.30;99.90;2.10;100033.00;;;;5012636;27;88075;-69
2021/12/06 02:34:49;;;;;;;28.47;13.83;;;2.30;99.90;2.10;100033.00;;;;5014548;27;87863;-69
2021/12/06 02:37:23;;;;;;;23.20;14.57;;;2.30;99.90;2.10;100040.00;;;;5015018;27;91908;-69
2021/12/06 02:39:49;;;;;;;24.83;14.43;;;2.40;99.90;2.10;100045.00;;;;4995459;27;87796;-69
2021/12/06 02:42:16;;;;;;;27.93;15.23;;;2.30;99.90;2.10;100046.00;;;;4995685;27;88886;-69
2021/12/06 02:44:44;;;;;;;26.40;14.07;;;2.30;99.90;2.10;100053.00;;;;5015634;27;89606;-69
2021/12/06 02:47:11;;;;;;;28.03;14.93;;;2.30;99.90;2.10;100048.00;;;;5009403;27;103975;-69
2021/12/06 02:49:37;;;;;;;23.97;14.03;;;2.30;99.90;2.10;100051.00;;;;4995821;28;94091;-69
2021/12/06 02:52:05;;;;;;;31.70;15.63;;;3.20;99.90;2.10;100047.00;;;;4995204;27;94757;-69
2021/12/06 02:54:31;;;;;;;28.33;15.70;;;2.40;99.90;2.10;100062.00;;;;5026849;27;87874;-68
2021/12/06 02:59:41;;;;;;;29.97;15.17;;;2.30;99.90;2.10;100058.00;;;;5005418;27;87009;-68
2021/12/06 03:02:18;;;;;;;23.87;13.03;;;2.30;99.90;2.10;100055.00;;;;5015254;27;89032;-69
2021/12/06 03:04:45;;;;;;;27.47;15.07;;;2.60;99.90;2.10;100063.00;;;;4993153;27;87763;-69
2021/12/06 03:07:12;;;;;;;25.67;14.47;;;2.50;99.90;2.10;100070.00;;;;4995156;27;88620;-69
2021/12/06 03:09:40;;;;;;;23.00;13.27;;;2.30;99.90;2.10;100074.00;;;;4975753;27;1132275;-69
2021/12/06 03:12:14;;;;;;;27.97;13.93;;;2.30;99.90;2.00;100070.00;;;;4997770;27;89176;-69
2021/12/06 03:14:47;;;;;;;33.13;14.70;;;2.30;99.90;2.00;100070.00;;;;4995451;28;100155;-70
2021/12/06 03:17:19;;;;;;;23.07;12.87;;;3.00;99.90;2.00;100078.00;;;;4998919;27;87961;-69
2021/12/06 03:19:45;;;;;;;22.10;12.20;;;3.40;99.90;2.00;100079.00;;;;5016698;27;87819;-70
2021/12/06 03:22:14;;;;;;;22.93;12.60;;;2.20;99.90;1.90;100078.00;;;;5015566;27;101399;-71
2021/12/06 03:24:41;;;;;;;25.73;13.03;;;2.10;99.90;1.90;100089.00;;;;5014723;27;87637;-68
2021/12/06 03:27:07;;;;;;;27.20;13.77;;;2.20;99.90;1.90;100079.00;;;;5016448;27;87854;-68
2021/12/06 03:29:33;;;;;;;19.93;11.27;;;2.10;99.90;1.90;100075.00;;;;4996588;27;87725;-68
2021/12/06 03:31:59;;;;;;;23.93;12.70;;;2.20;99.90;1.90;100084.00;;;;4996599;27;88801;-69
2021/12/06 03:34:26;;;;;;;28.27;12.43;;;2.10;99.90;1.90;100078.00;;;;4993575;27;92228;-70
2021/12/06 03:36:54;;;;;;;23.87;13.30;;;2.20;99.90;1.90;100082.00;;;;4997117;27;87873;-68
2021/12/06 03:39:29;;;;;;;23.63;12.40;;;2.10;99.90;1.90;100084.00;;;;5001661;27;90269;-68
2021/12/06 03:41:59;;;;;;;18.73;11.80;;;2.10;99.90;1.90;100091.00;;;;4995370;27;88276;-68
2021/12/06 03:44:25;;;;;;;18.20;11.53;;;2.10;99.90;1.80;100096.00;;;;4996440;28;88509;-68
2021/12/06 03:46:58;;;;;;;23.43;12.90;;;2.10;99.90;1.80;100092.00;;;;4996479;27;87660;-68
2021/12/06 03:49:24;;;;;;;16.60;11.43;;;2.10;99.90;1.80;100091.00;;;;5015937;27;101127;-68
2021/12/06 03:51:50;;;;;;;18.77;10.93;;;2.50;99.90;1.80;100093.00;;;;5014954;27;104840;-69
2021/12/06 03:54:21;;;;;;;20.80;12.07;;;1.90;99.90;1.80;100091.00;;;;5016140;27;88062;-68
2021/12/06 03:56:48;;;;;;;17.53;12.27;;;2.00;99.90;1.70;100091.00;;;;5015210;27;97435;-68
2021/12/06 03:59:14;;;;;;;23.00;13.37;;;2.00;99.90;1.70;100091.00;;;;4998891;27;87776;-69
2021/12/06 04:01:40;;;;;;;22.37;11.23;;;2.00;99.90;1.70;100083.00;;;;4996826;27;91912;-69
2021/12/06 04:04:07;;;;;;;23.37;13.07;;;2.00;99.90;1.70;100088.00;;;;5015601;27;87966;-70
2021/12/06 04:06:35;;;;;;;21.40;13.23;;;2.00;99.90;1.70;100093.00;;;;5004052;27;102416;-69
2021/12/06 04:09:04;;;;;;;22.23;12.97;;;2.00;99.90;1.70;100094.00;;;;4995578;27;87695;-69
2021/12/06 04:11:30;;;;;;;28.47;13.60;;;2.00;99.90;1.60;100097.00;;;;4994769;27;88545;-68
2021/12/06 04:13:55;;;;;;;29.07;12.80;;;2.00;99.90;1.60;100089.00;;;;4994952;27;88682;-71
2021/12/06 04:16:21;;;;;;;29.10;14.10;;;2.10;99.90;1.60;100098.00;;;;4994949;28;112155;-71
2021/12/06 04:18:47;;;;;;;26.13;12.63;;;1.90;99.90;1.60;100110.00;;;;4994897;27;109201;-70
2021/12/06 04:21:13;;;;;;;19.83;11.83;;;2.40;99.90;1.50;100105.00;;;;4994921;27;88903;-72
2021/12/06 04:23:39;;;;;;;26.07;13.33;;;1.90;99.90;1.50;100110.00;;;;4992938;27;88526;-72
2021/12/06 04:26:06;;;;;;;20.63;13.07;;;2.20;99.90;1.50;100113.00;;;;4995683;28;87617;-72
2021/12/06 04:28:35;;;;;;;28.07;13.97;;;1.80;99.90;1.50;100114.00;;;;4995831;27;87787;-72
2021/12/06 04:31:03;;;;;;;24.73;13.37;;;1.70;99.90;1.50;100125.00;;;;4996698;27;89104;-72
2021/12/06 04:33:30;;;;;;;19.73;11.40;;;1.80;99.90;1.50;100137.00;;;;4994420;27;102956;-72
2021/12/06 04:35:55;;;;;;;18.60;12.80;;;1.80;99.90;1.50;100125.00;;;;4998377;27;102343;-69
2021/12/06 04:38:21;;;;;;;24.70;12.03;;;1.70;99.90;1.40;100129.00;;;;5016466;27;86938;-71
2021/12/06 04:40:48;;;;;;;23.70;13.47;;;1.80;99.90;1.40;100132.00;;;;5011594;27;117615;-72
2021/12/06 04:43:14;;;;;;;27.40;14.30;;;1.80;99.90;1.40;100138.00;;;;5015477;27;88352;-73
2021/12/06 04:45:41;;;;;;;20.57;12.77;;;1.70;99.90;1.40;100144.00;;;;5014515;27;88712;-71
2021/12/06 04:48:08;;;;;;;24.57;12.47;;;1.70;99.90;1.40;100145.00;;;;5010698;27;87835;-69
2021/12/06 04:50:35;;;;;;;25.33;12.77;;;1.70;99.90;1.40;100148.00;;;;4995680;27;100818;-71
2021/12/06 04:53:08;;;;;;;23.43;13.47;;;1.80;99.90;1.40;100145.00;;;;5012953;27;87745;-71
2021/12/06 04:55:49;;;;;;;21.57;13.33;;;1.80;99.90;1.40;100151.00;;;;5012982;27;87786;-71
2021/12/06 04:58:26;;;;;;;26.03;13.67;;;1.70;99.90;1.40;100154.00;;;;5013525;27;88073;-71
2021/12/06 05:01:07;;;;;;;24.00;12.93;;;1.70;99.90;1.40;100151.00;;;;4995474;27;90292;-71
2021/12/06 05:03:34;;;;;;;20.77;11.77;;;1.70;99.90;1.40;100157.00;;;;5014901;27;98974;-70
2021/12/06 05:06:08;;;;;;;17.57;11.87;;;1.70;99.90;1.40;100160.00;;;;5001643;27;102256;-71
2021/12/06 05:08:44;;;;;;;22.07;12.00;;;1.70;99.90;1.40;100146.00;;;;5014510;27;87677;-69
2021/12/06 05:11:11;;;;;;;20.60;11.93;;;1.60;99.90;1.40;100147.00;;;;5014091;27;95474;-70
2021/12/06 05:13:42;;;;;;;20.27;13.33;;;1.70;99.90;1.40;100159.00;;;;4999288;27;103657;-72
2021/12/06 05:16:07;;;;;;;21.17;12.00;;;1.60;99.90;1.40;100160.00;;;;5013549;27;87984;-71
2021/12/06 05:18:33;;;;;;;19.87;11.67;;;2.30;99.90;1.40;100169.00;;;;5014869;27;87660;-71
2021/12/06 05:20:59;;;;;;;19.07;11.80;;;1.70;99.90;1.40;100157.00;;;;5013431;27;117957;-71
2021/12/06 05:23:25;;;;;;;16.20;11.87;;;1.60;99.90;1.40;100164.00;;;;5007316;27;101395;-71
2021/12/06 05:25:51;;;;;;;19.50;12.13;;;1.70;99.90;1.40;100170.00;;;;4993962;27;100545;-72
2021/12/06 05:28:21;;;;;;;17.30;12.10;;;1.70;99.90;1.40;100183.00;;;;4992247;27;104600;-71
2021/12/06 05:30:49;;;;;;;20.33;12.40;;;1.70;99.90;1.40;100178.00;;;;4995629;27;87916;-72
2021/12/06 05:33:28;;;;;;;19.70;12.70;;;1.70;99.90;1.40;100179.00;;;;4994120;27;88817;-70
2021/12/06 05:35:53;;;;;;;19.03;11.37;;;1.70;99.90;1.40;100180.00;;;;4993807;28;88570;-70
2021/12/06 05:38:19;;;;;;;20.97;11.47;;;1.70;99.90;1.40;100185.00;;;;4994858;27;87832;-70
2021/12/06 05:40:47;;;;;;;18.30;11.40;;;1.70;99.90;1.40;100187.00;;;;4993015;27;117418;-70
2021/12/06 05:43:13;;;;;;;22.03;13.27;;;1.60;99.90;1.40;100202.00;;;;5006548;27;88508;-71
2021/12/06 05:45:39;;;;;;;22.33;13.33;;;1.60;99.90;1.30;100199.00;;;;5014801;27;87883;-72
2021/12/06 05:48:06;;;;;;;21.53;12.80;;;1.60;99.90;1.40;100200.00;;;;5011481;27;108668;-70
2021/12/06 05:50:32;;;;;;;28.47;14.90;;;1.60;99.90;1.30;100214.00;;;;5014228;27;92173;-70
2021/12/06 05:52:58;;;;;;;21.40;13.23;;;1.60;99.90;1.40;100211.00;;;;5013930;27;89169;-70
2021/12/06 05:55:27;;;;;;;17.80;12.20;;;1.60;99.90;1.30;100213.00;;;;5014073;27;87565;-70
2021/12/06 05:57:56;;;;;;;27.40;13.73;;;2.00;99.90;1.30;100223.00;;;;5000208;27;87878;-70
2021/12/06 06:00:24;;;;;;;22.73;12.73;;;1.60;99.90;1.30;100223.00;;;;5013126;27;89203;-70
2021/12/06 06:02:53;;;;;;;26.40;13.90;;;1.60;99.90;1.30;100234.00;;;;5013951;27;88191;-70
2021/12/06 06:05:20;;;;;;;24.93;13.13;;;1.60;99.90;1.30;100229.00;;;;5016598;27;106810;-70
2021/12/06 06:07:47;;;;;;;28.33;14.60;;;1.60;99.90;1.30;100230.00;;;;5016659;27;87923;-70
2021/12/06 06:10:13;;;;;;;27.93;14.93;;;1.70;99.90;1.30;100232.00;;;;5007189;27;88505;-69
2021/12/06 06:12:39;;;;;;;21.83;13.10;;;1.60;99.90;1.30;100233.00;;;;5016791;27;88246;-69
2021/12/06 06:15:05;;;;;;;28.57;15.10;;;1.60;99.90;1.30;100236.00;;;;5017517;27;88016;-71
2021/12/06 06:17:39;;;;;;;21.50;13.10;;;1.50;99.90;1.30;100243.00;;;;5018282;27;86836;-70
2021/12/06 06:20:16;;;;;;;21.43;14.20;;;1.40;99.90;1.20;100226.00;;;;5016857;27;88960;-70
2021/12/06 06:22:42;;;;;;;29.83;15.57;;;1.50;99.90;1.20;100236.00;;;;5016914;27;87865;-70
2021/12/06 06:25:09;;;;;;;24.60;13.70;;;1.60;99.90;1.30;100235.00;;;;5017041;27;88597;-70
2021/12/06 06:27:35;;;;;;;26.60;14.70;;;1.60;99.90;1.30;100243.00;;;;5016858;27;88141;-71
2021/12/06 06:30:01;;;;;;;29.67;14.00;;;1.50;99.90;1.30;100246.00;;;;5017165;27;89262;-71
2021/12/06 06:32:26;;;;;;;24.90;15.13;;;1.70;99.90;1.20;100251.00;;;;5017015;27;96476;-70
2021/12/06 06:34:52;;;;;;;26.03;14.13;;;1.80;99.90;1.20;100256.00;;;;5002104;27;112715;-70
2021/12/06 06:37:18;;;;;;;25.23;15.10;;;1.50;99.90;1.20;100273.00;;;;4996961;27;87818;-71
2021/12/06 06:39:44;;;;;;;21.93;14.10;;;1.50;99.90;1.20;100279.00;;;;5013459;27;118207;-72
2021/12/06 06:42:09;;;;;;;32.97;16.43;;;1.50;99.90;1.10;100265.00;;;;5016780;27;112475;-69
2021/12/06 06:44:35;;;;;;;39.00;17.97;;;1.40;99.90;1.10;100272.00;;;;5016260;27;113130;-71
2021/12/06 06:47:01;;;;;;;24.27;15.60;;;1.50;99.90;1.10;100279.00;;;;5009377;27;109818;-71
2021/12/06 06:49:30;;;;;;;28.90;14.97;;;1.40;99.90;1.20;100272.00;;;;4996648;27;89996;-70
2021/12/06 06:52:00;;;;;;;26.50;15.87;;;1.40;99.90;1.20;100273.00;;;;4995981;27;89768;-70
2021/12/06 06:54:26;;;;;;;27.00;16.83;;;1.40;99.90;1.20;100277.00;;;;5014857;27;91086;-71
2021/12/06 06:56:52;;;;;;;26.90;16.87;;;1.40;99.90;1.20;100281.00;;;;5009699;27;87807;-70
2021/12/06 06:59:18;;;;;;;25.47;16.27;;;1.30;99.90;1.20;100274.00;;;;4996276;27;117443;-70
2021/12/06 07:01:45;;;;;;;34.13;16.30;;;1.40;99.90;1.20;100286.00;;;;4996815;27;89509;-70
2021/12/06 07:04:12;;;;;;;28.10;15.60;;;1.40;99.90;1.20;100285.00;;;;4997419;28;88128;-70
2021/12/06 07:06:38;;;;;;;32.97;16.83;;;1.50;99.90;1.20;100293.00;;;;5009980;27;87279;-71
2021/12/06 07:09:05;;;;;;;28.27;16.33;;;1.50;99.90;1.20;100299.00;;;;5004440;27;88409;-70
2021/12/06 07:11:31;;;;;;;28.73;16.47;;;1.50;99.90;1.20;100297.00;;;;4996969;27;87857;-68
2021/12/06 07:13:57;;;;;;;26.87;16.57;;;1.50;99.90;1.20;100311.00;;;;4995526;27;88783;-69
2021/12/06 07:16:23;;;;;;;29.60;16.87;;;1.50;99.90;1.20;100306.00;;;;4996092;27;87681;-69
2021/12/06 07:18:49;;;;;;;36.63;18.60;;;2.30;99.90;1.20;100301.00;;;;4999497;27;88982;-69
2021/12/06 07:21:15;;;;;;;31.13;18.50;;;1.50;99.90;1.20;100309.00;;;;5006992;27;105196;-70
2021/12/06 07:23:42;;;;;;;28.47;15.80;;;1.60;99.90;1.20;100313.00;;;;5016441;27;94129;-69
2021/12/06 07:26:13;;;;;;;33.67;16.33;;;1.50;99.90;1.20;100317.00;;;;4995089;27;88005;-70
2021/12/06 07:28:39;;;;;;;33.53;16.90;;;1.50;99.90;1.20;100325.00;;;;4996266;27;88155;-69
2021/12/06 07:31:06;;;;;;;28.03;16.13;;;1.50;99.90;1.20;100321.00;;;;4996201;27;91782;-69
2021/12/06 07:33:35;;;;;;;37.13;17.97;;;1.40;99.90;1.20;100324.00;;;;4996113;27;87675;-71
2021/12/06 07:36:02;;;;;;;34.10;16.53;;;1.40;99.90;1.20;100335.00;;;;4995784;27;108330;-69
2021/12/06 07:38:28;;;;;;;35.40;18.67;;;1.20;99.90;1.10;100331.00;;;;5015688;27;89294;-70
2021/12/06 07:40:55;;;;;;;31.13;17.00;;;1.50;99.90;1.10;100318.00;;;;5015084;27;88897;-69
2021/12/06 07:43:21;;;;;;;34.37;17.67;;;2.00;99.90;1.20;100335.00;;;;4996476;27;88242;-68
2021/12/06 07:45:47;;;;;;;31.90;18.80;;;1.50;99.90;1.10;100337.00;;;;4998235;27;87874;-67
2021/12/06 07:48:15;;;;;;;33.93;16.70;;;1.50;99.90;1.20;100338.00;;;;4994149;27;116716;-67
2021/12/06 07:50:41;;;;;;;27.70;16.70;;;1.50;99.90;1.20;100352.00;;;;4993001;27;87945;-70
2021/12/06 07:53:07;;;;;;;27.40;17.17;;;1.50;99.90;1.20;100359.00;;;;4993067;27;87779;-69
2021/12/06 07:55:34;;;;;;;27.83;16.63;;;1.70;99.90;1.20;100354.00;;;;4993797;27;87175;-68
2021/12/06 07:58:04;;;;;;;31.33;17.33;;;1.50;99.90;1.30;100358.00;;;;4992369;27;88115;-69
2021/12/06 08:00:34;;;;;;;29.00;17.43;;;1.50;99.90;1.30;100353.00;;;;4992942;27;88038;-70
2021/12/06 08:03:00;;;;;;;31.40;17.70;;;1.60;99.90;1.30;100360.00;;;;4996759;27;88676;-71
2021/12/06 08:05:30;;;;;;;37.03;18.33;;;1.10;99.90;1.30;100359.00;;;;4991253;27;88302;-70
2021/12/06 08:08:12;;;;;;;25.13;15.80;;;1.60;99.90;1.30;100351.00;;;;4990951;27;88484;-71
2021/12/06 08:10:47;;;;;;;30.97;16.60;;;1.60;99.90;1.30;100355.00;;;;4992100;27;88024;-70
2021/12/06 08:13:20;;;;;;;32.03;17.80;;;1.60;99.90;1.30;100351.00;;;;5004044;27;88142;-68
2021/12/06 08:15:47;;;;;;;28.70;17.40;;;1.60;99.90;1.30;100372.00;;;;4996048;27;87764;-70
2021/12/06 08:18:13;;;;;;;30.40;16.27;;;1.60;99.90;1.30;100378.00;;;;4990783;27;104959;-70
2021/12/06 08:20:41;;;;;;;27.53;16.77;;;1.60;99.90;1.30;100375.00;;;;4992098;27;117738;-69
2021/12/06 08:23:08;;;;;;;27.77;16.60;;;2.10;99.90;1.40;100373.00;;;;4991991;27;87821;-70
2021/12/06 08:25:34;;;;;;;26.80;16.50;;;1.60;99.90;1.30;100380.00;;;;4994324;27;87836;-70
2021/12/06 08:28:00;;;;;;;34.00;16.43;;;1.60;99.90;1.40;100381.00;;;;4991483;27;88877;-70
2021/12/06 08:30:26;;;;;;;29.57;16.63;;;1.70;99.90;1.40;100385.00;;;;4991861;27;90159;-68
2021/12/06 08:32:57;;;;;;;26.90;15.90;;;1.60;99.90;1.40;100382.00;;;;4992981;27;87683;-70
2021/12/06 08:35:23;;;;;;;28.73;14.90;;;1.60;99.90;1.40;100382.00;;;;4990667;27;88159;-71
2021/12/06 08:37:49;;;;;;;26.30;16.63;;;1.60;99.90;1.40;100373.00;;;;4991920;27;89412;-69
2021/12/06 08:40:16;;;;;;;35.57;18.33;;;1.60;99.90;1.40;100380.00;;;;4990248;27;90508;-69
2021/12/06 08:42:43;;;;;;;29.87;16.20;;;1.60;99.90;1.40;100382.00;;;;4992574;27;108530;-71
2021/12/06 08:45:12;;;;;;;30.33;15.97;;;1.70;99.90;1.40;100386.00;;;;4992207;27;88009;-69
2021/12/06 08:47:39;;;;;;;33.80;17.80;;;1.80;99.90;1.40;100397.00;;;;4992223;27;91917;-68
2021/12/06 08:50:10;;;;;;;36.03;18.43;;;1.90;99.90;1.40;100392.00;;;;4997656;27;96057;-69
2021/12/06 08:52:36;;;;;;;28.00;16.67;;;1.60;99.90;1.40;100387.00;;;;4991940;27;88719;-69
2021/12/06 08:55:07;;;;;;;25.10;14.87;;;1.60;99.90;1.40;100392.00;;;;4994454;27;87764;-70
2021/12/06 08:57:34;;;;;;;29.93;16.43;;;1.70;99.90;1.40;100392.00;;;;4994585;27;88860;-71
2021/12/06 08:59:59;;;;;;;30.33;16.23;;;2.10;99.90;1.40;100399.00;;;;4989473;27;87886;-71
2021/12/06 09:02:25;;;;;;;28.40;16.73;;;1.70;99.90;1.40;100402.00;;;;4992079;27;111761;-70
2021/12/06 09:04:51;;;;;;;29.47;17.03;;;1.70;99.90;1.40;100404.00;;;;4997218;27;87917;-70
2021/12/06 09:07:19;;;;;;;30.77;17.23;;;1.70;99.90;1.40;100419.00;;;;4991439;27;109843;-69
2021/12/06 09:09:49;;;;;;;26.53;15.67;;;1.70;99.90;1.40;100413.00;;;;4991730;27;88930;-70
2021/12/06 09:12:20;;;;;;;30.93;17.10;;;1.60;99.90;1.40;100424.00;;;;4991998;27;87947;-68
2021/12/06 09:14:46;;;;;;;30.23;17.60;;;1.70;99.90;1.40;100415.00;;;;4996339;27;87923;-67
2021/12/06 09:17:14;;;;;;;27.40;16.57;;;1.60;99.90;1.40;100418.00;;;;4991633;27;89368;-69
2021/12/06 09:19:40;;;;;;;31.00;17.10;;;1.80;99.90;1.40;100422.00;;;;4992407;27;88882;-68
2021/12/06 09:22:06;;;;;;;26.07;14.83;;;1.70;99.90;1.40;100424.00;;;;4991154;27;87753;-68
2021/12/06 09:24:33;;;;;;;29.27;16.43;;;1.80;99.90;1.40;100424.00;;;;4994675;27;88126;-67
2021/12/06 09:27:00;;;;;;;31.53;17.67;;;1.70;99.90;1.50;100431.00;;;;4991741;27;88024;-67
2021/12/06 09:29:27;;;;;;;30.03;17.13;;;1.70;99.90;1.50;100428.00;;;;4991677;27;88717;-69
2021/12/06 09:31:55;;;;;;;28.17;15.63;;;2.90;99.90;1.50;100414.00;;;;4990962;27;87907;-69
2021/12/06 09:34:21;;;;;;;37.07;18.47;;;2.70;99.90;1.50;100429.00;;;;4991996;27;87034;-68
2021/12/06 09:36:48;;;;;;;31.03;16.17;;;1.80;99.90;1.50;100435.00;;;;4992482;27;89643;-68
2021/12/06 09:39:17;;;;;;;28.90;16.27;;;2.50;99.90;1.50;100434.00;;;;4996632;27;87634;-68
2021/12/06 09:41:42;;;;;;;24.00;14.13;;;1.80;99.90;1.50;100432.00;;;;4994445;27;88919;-68
2021/12/06 09:44:09;;;;;;;30.13;15.80;;;1.80;99.90;1.50;100436.00;;;;4995369;27;87763;-68
2021/12/06 09:46:38;;;;;;;31.13;16.63;;;1.80;99.90;1.50;100428.00;;;;4994769;27;88652;-68
2021/12/06 09:49:15;;;;;;;20.60;13.10;;;1.80;99.90;1.50;100440.00;;;;4997992;27;88207;-68
2021/12/06 09:51:50;;;;;;;28.87;15.57;;;1.70;99.90;1.50;100424.00;;;;4995058;27;88156;-68
2021/12/06 09:54:23;;;;;;;30.20;15.63;;;1.40;99.90;1.50;100438.00;;;;5000168;27;88141;-69
2021/12/06 09:56:50;;;;;;;27.60;16.80;;;1.80;99.90;1.60;100437.00;;;;4995065;27;88784;-68
2021/12/06 09:59:20;;;;;;;25.97;15.70;;;1.80;99.90;1.60;100443.00;;;;4998299;27;88220;-68
2021/12/06 10:01:55;;;;;;;28.03;14.53;;;1.80;99.90;1.60;100435.00;;;;4994210;27;87943;-69
2021/12/06 10:04:25;;;;;;;34.03;14.77;;;1.90;99.90;1.60;100446.00;;;;4992809;27;87884;-69
2021/12/06 10:06:53;;;;;;;22.40;14.40;;;2.80;99.90;1.70;100430.00;;;;4994330;27;89331;-70
2021/12/06 10:09:20;;;;;;;24.30;14.40;;;2.10;99.90;1.70;100427.00;;;;4998986;27;98044;-70
2021/12/06 10:11:48;;;;;;;26.43;13.83;;;1.90;99.90;1.70;100429.00;;;;4994020;27;87767;-69
2021/12/06 10:14:15;;;;;;;20.83;13.80;;;2.90;99.90;1.80;100423.00;;;;4995653;27;88049;-69
2021/12/06 10:16:43;;;;;;;24.97;14.67;;;2.00;99.90;1.80;100418.00;;;;4995133;27;88823;-69
2021/12/06 10:19:10;;;;;;;25.63;13.80;;;2.10;99.90;1.80;100427.00;;;;4999730;27;88411;-67
2021/12/06 10:21:38;;;;;;;29.10;14.80;;;2.10;99.90;1.90;100431.00;;;;4994553;27;87948;-69
2021/12/06 10:24:10;;;;;;;19.30;12.73;;;2.10;99.90;1.90;100438.00;;;;4994313;27;91328;-69
2021/12/06 10:26:36;;;;;;;30.03;13.30;;;2.30;99.90;1.90;100442.00;;;;4999581;27;87866;-68
2021/12/06 10:29:09;;;;;;;24.87;13.40;;;2.30;99.90;2.00;100430.00;;;;4992846;27;117201;-70
2021/12/06 10:31:43;;;;;;;25.17;14.33;;;3.90;99.90;2.00;100440.00;;;;4991291;27;89286;-68
2021/12/06 10:34:15;;;;;;;20.10;13.03;;;2.20;99.90;2.00;100418.00;;;;4993979;27;87934;-68
2021/12/06 10:36:41;;;;;;;24.23;13.93;;;2.30;99.90;2.00;100428.00;;;;4995376;27;88854;-69
2021/12/06 10:39:09;;;;;;;24.50;14.30;;;2.30;99.90;2.00;100433.00;;;;4993654;27;88265;-68
2021/12/06 10:41:38;;;;;;;28.23;14.50;;;2.20;99.90;2.00;100431.00;;;;4994170;27;88186;-68
2021/12/06 10:44:13;;;;;;;25.87;15.43;;;2.30;99.90;2.00;100434.00;;;;4993638;27;92716;-68
2021/12/06 10:46:50;;;;;;;28.50;15.17;;;2.30;99.90;2.00;100433.00;;;;4994625;27;88813;-69
2021/12/06 10:49:23;;;;;;;29.53;15.07;;;2.30;99.90;2.00;100436.00;;;;5005403;27;108890;-69
2021/12/06 10:51:50;;;;;;;21.40;13.30;;;2.20;99.90;2.00;100429.00;;;;5000077;27;88530;-68
2021/12/06 10:54:33;;;;;;;20.33;13.97;;;2.20;99.90;2.00;100438.00;;;;4994052;27;87887;-67
2021/12/06 10:57:02;;;;;;;21.13;13.93;;;2.30;99.90;2.00;100430.00;;;;4992996;27;89270;-70
2021/12/06 10:59:34;;;;;;;27.10;13.07;;;2.20;99.90;2.10;100428.00;;;;4992887;27;89724;-68
2021/12/06 11:02:09;;;;;;;22.37;13.80;;;2.30;99.90;2.10;100434.00;;;;4993196;27;88230;-70
2021/12/06 11:04:37;;;;;;;24.33;13.40;;;2.30;99.90;2.10;100426.00;;;;4994231;27;87706;-69
2021/12/06 11:07:05;;;;;;;25.33;13.77;;;3.20;99.90;2.10;100430.00;;;;4991452;27;87810;-69
2021/12/06 11:09:35;;;;;;;23.03;12.17;;;2.30;99.90;2.10;100438.00;;;;4991308;27;89240;-68